Hammon, Oklahoma
Current Conditions -  °F | °C
As of 11:55 AM on Monday 24 Nov 2014 (Local Time) from KELK Reporting Station
Clear Clear  
Wind Chill: 55°   Ceiling: Unl
Heat Index: 55°   Visibility: 10mi
Dew Point: 28°   Wind: 20mph
Humidity: 36%   Direction: 280°W
Pressure: 30.06"   Gusts: 28mph
Location:  35.63°N, 99.38°W
Report Text: KELK 241755Z AUTO 28017G24KT 10SM CLR 13/M02 A3006 RMK AO2
Loading
Personal Weather Stations






























Interactive Weather Map New forecast layout! Learn more

10-Day Weather Forecast

Advertisements
Track Severe Weather on mobile